This is the latest recevied weather packets stored in our database for station/object KX4KY-13. If no packets are shown the sender has not sent any weather packets the latest 10 day(s).
| Time | Temp. | Humidity | Pressure | Rain* | Wind** | Luminosity | Snow |
|---|---|---|---|---|---|---|---|
| 1777024821 | 16.11° C | 57% | 1014.3 hPa | 0 mm | - | 0 W/m² | - |
| 1777023622 | 16.67° C | 55% | 1014.2 hPa | 0 mm | - | 0 W/m² | - |
| 1777023022 | 16.67° C | 55% | 1014.1 hPa | 0 mm | - | 0 W/m² | - |
| 1777021222 | 17.22° C | 53% | 1014.1 hPa | 0 mm | - | 0 W/m² | - |
| 1777020622 | 17.22° C | 53% | 1014.1 hPa | 0 mm | - | 0 W/m² | - |
| 1777019422 | 17.22° C | 52% | 1014.2 hPa | 0 mm | - | 0 W/m² | - |
| 1777016423 | 17.22° C | 52% | 1014.3 hPa | 0 mm | - | 0 W/m² | - |
| 1777014624 | 16.67° C | 53% | 1014.4 hPa | 0 mm | - | 0 W/m² | - |
| 1777014023 | 16.67° C | 53% | 1014.3 hPa | 0 mm | - | 0 W/m² | - |
| 1777004426 | 17.78° C | 50% | 1015.5 hPa | 0 mm | - | 0 W/m² | - |
| 1776993017 | 18.33° C | 45% | 1015.8 hPa | 0 mm | - | 0 W/m² | - |
| 1776991217 | 18.89° C | 46% | 1015.7 hPa | 0 mm | - | 0 W/m² | - |
| 1776986418 | 20.56° C | 43% | 1015.5 hPa | 0 mm | - | 26 W/m² | - |
| 1776979817 | 22.78° C | 35% | 1015.5 hPa | 0 mm | - | 52 W/m² | - |
| 1776972619 | 25.56° C | 30% | 1016.7 hPa | 0 mm | - | 780 W/m² | - |
| 1776972018 | 25.56° C | 30% | 1016.8 hPa | 0 mm | - | 809 W/m² | - |
| 1776969621 | 25.56° C | 32% | 1017.3 hPa | 0 mm | - | 898 W/m² | - |
| 1776969016 | 25.56° C | 32% | 1017.5 hPa | 0 mm | - | 911 W/m² | - |
| 1776967816 | 25.56° C | 32% | 1017.7 hPa | 0 mm | - | 961 W/m² | - |
| 1776965418 | 25° C | 34% | 1018.4 hPa | 0 mm | - | 949 W/m² | - |
| 1776964238 | 25° C | 34% | 1018.7 hPa | 0 mm | - | 945 W/m² | - |
| 1776960019 | 23.89° C | 36% | 1019.8 hPa | 0 mm | - | 880 W/m² | - |
| 1776959418 | 23.89° C | 37% | 1019.9 hPa | 0 mm | - | 865 W/m² | - |
| 1776957019 | 23.33° C | 38% | 1020.1 hPa | 0 mm | - | 774 W/m² | - |
| 1776956439 | 23.33° C | 40% | 1020.2 hPa | 0 mm | - | 746 W/m² | - |
* Rain latest hour (hover to see other rain measurements)
** Current wind speed in m/s (hover to see current wind gust speed)